createdAt,value
2023-04-15T00:01:25.375Z,57.70
2023-04-15T00:06:27.589Z,57.70
2023-04-15T00:11:29.502Z,57.60
2023-04-15T00:16:31.364Z,57.60
2023-04-15T00:21:33.297Z,57.60
2023-04-15T00:26:35.717Z,57.50
2023-04-15T00:31:37.655Z,57.50
2023-04-15T00:36:39.306Z,57.50
2023-04-15T00:41:40.878Z,57.50
2023-04-15T00:46:43.333Z,57.40
2023-04-15T00:51:45.122Z,57.40
2023-04-15T00:56:46.792Z,57.30
2023-04-15T01:01:48.774Z,57.20
2023-04-15T01:06:50.479Z,57.30
2023-04-15T01:11:52.454Z,57.20
2023-04-15T01:16:54.013Z,57.20
2023-04-15T01:21:56.494Z,57.20
2023-04-15T01:26:58.574Z,57.10
2023-04-15T01:32:00.272Z,57.10
2023-04-15T01:37:02.021Z,57.10
2023-04-15T01:42:04.195Z,57.00
2023-04-15T01:47:06.807Z,57.00
2023-04-15T01:52:09.120Z,57.00
2023-04-15T01:57:10.999Z,56.90
2023-04-15T02:02:12.769Z,56.90
2023-04-15T02:07:14.515Z,56.80
2023-04-15T02:12:16.140Z,56.80
2023-04-15T02:17:17.905Z,56.80
2023-04-15T02:22:19.828Z,56.80
2023-04-15T02:27:22.536Z,56.80
2023-04-15T02:32:25.058Z,56.70
2023-04-15T02:37:28.745Z,56.70
2023-04-15T02:42:31.982Z,56.70
2023-04-15T02:47:34.332Z,56.70
2023-04-15T02:52:36.169Z,56.70
2023-04-15T02:57:39.083Z,56.70
2023-04-15T03:02:42.281Z,56.60
2023-04-15T03:07:44.272Z,56.60
2023-04-15T03:12:46.215Z,56.60
2023-04-15T03:17:49.854Z,56.60
2023-04-15T03:22:51.507Z,56.70
2023-04-15T03:27:53.247Z,56.70
2023-04-15T03:32:55.250Z,56.60
2023-04-15T03:37:57.165Z,56.60
2023-04-15T03:42:58.863Z,57.60
2023-04-15T05:05:59.551Z,56.50
2023-04-15T05:11:01.168Z,56.50
2023-04-15T05:16:03.073Z,56.40
2023-04-15T05:21:04.961Z,56.30
2023-04-15T05:26:06.642Z,56.40
2023-04-15T05:31:08.759Z,56.40
2023-04-15T05:36:10.447Z,56.50
2023-04-15T05:41:12.312Z,56.70
2023-04-15T05:46:14.157Z,56.90
2023-04-15T05:51:16.109Z,57.10
2023-04-15T05:56:18.033Z,57.20
2023-04-15T06:01:19.670Z,57.20
2023-04-15T06:06:21.530Z,57.40
2023-04-15T06:11:23.452Z,57.40
2023-04-15T06:16:25.244Z,57.50
2023-04-15T06:21:27.171Z,57.60
2023-04-15T06:26:28.722Z,57.70
2023-04-15T06:31:30.619Z,57.80
2023-04-15T06:36:32.643Z,57.80
2023-04-15T06:41:34.437Z,58.00
2023-04-15T06:46:36.098Z,58.00
2023-04-15T06:51:37.805Z,58.10
2023-04-15T06:56:39.513Z,58.10
2023-04-15T07:01:42.105Z,58.00
2023-04-15T07:06:44.526Z,57.90
2023-04-15T07:11:46.179Z,57.70
2023-04-15T07:16:47.829Z,57.80
2023-04-15T07:21:49.513Z,57.90
2023-04-15T07:26:51.097Z,59.20
2023-04-15T07:31:52.725Z,59.40
2023-04-15T07:36:54.844Z,59.60
2023-04-15T07:41:56.618Z,59.90
2023-04-15T07:46:58.270Z,60.10
2023-04-15T07:52:00.541Z,60.00
2023-04-15T07:57:03.104Z,60.00
2023-04-15T08:02:04.851Z,60.10
2023-04-15T08:07:07.063Z,60.10
2023-04-15T08:12:12.360Z,59.90
2023-04-15T08:17:14.033Z,59.90
2023-04-15T08:22:18.200Z,59.80
2023-04-15T08:27:21.656Z,59.70
2023-04-15T08:32:23.744Z,59.50
2023-04-15T08:37:26.744Z,59.40
2023-04-15T08:42:32.684Z,59.30
2023-04-15T08:47:35.067Z,59.30
2023-04-15T08:52:36.924Z,59.20
2023-04-15T08:57:39.788Z,59.20
2023-04-15T09:02:41.594Z,59.10
2023-04-15T09:07:43.443Z,59.10
2023-04-15T09:12:45.113Z,59.00
2023-04-15T09:17:47.853Z,59.10
2023-04-15T09:22:50.480Z,58.90
2023-04-15T09:27:53.169Z,58.90
2023-04-15T09:32:58.917Z,58.80
2023-04-15T09:38:03.065Z,58.80
2023-04-15T09:43:05.371Z,58.60
2023-04-15T09:48:22.950Z,58.50
2023-04-15T09:53:25.399Z,58.50
2023-04-15T09:58:28.266Z,58.50
2023-04-15T10:03:31.669Z,58.30
2023-04-15T10:08:34.687Z,58.20
2023-04-15T10:13:37.321Z,58.10
2023-04-15T10:18:41.164Z,58.20
2023-04-15T10:23:42.959Z,58.20
2023-04-15T10:28:45.015Z,58.10
2023-04-15T10:33:47.628Z,58.20
2023-04-15T10:38:49.265Z,58.10
2023-04-15T10:43:54.950Z,58.10
2023-04-15T10:48:57.688Z,58.00
2023-04-15T10:53:59.796Z,58.00
2023-04-15T10:59:02.036Z,58.00
2023-04-15T11:04:03.906Z,58.10
2023-04-15T11:09:09.549Z,58.30
2023-04-15T11:14:15.228Z,61.50
2023-04-15T11:19:17.634Z,59.90
2023-04-15T11:24:28.384Z,59.30
2023-04-15T11:29:31.969Z,59.10
2023-04-15T11:34:35.590Z,59.70
2023-04-15T11:39:37.748Z,59.70
2023-04-15T11:44:39.365Z,59.50
2023-04-15T11:49:41.543Z,59.50
2023-04-15T11:54:43.340Z,59.70
2023-04-15T11:59:46.299Z,62.20
2023-04-15T12:04:48.170Z,61.80
2023-04-15T12:09:55.042Z,62.90
2023-04-15T12:14:57.055Z,61.10
2023-04-15T12:19:58.629Z,60.60
2023-04-15T12:25:02.621Z,60.40
2023-04-15T12:30:05.282Z,60.40
2023-04-15T12:35:07.241Z,60.30
2023-04-15T12:40:09.395Z,60.10
2023-04-15T12:45:11.240Z,60.10
2023-04-15T12:50:12.995Z,60.10
2023-04-15T12:55:14.603Z,60.10
2023-04-15T13:00:16.228Z,60.20
2023-04-15T13:05:17.933Z,60.10
2023-04-15T13:10:19.554Z,60.00
2023-04-15T13:15:22.691Z,60.10
2023-04-15T13:20:25.845Z,60.20
2023-04-15T13:25:28.073Z,60.00
2023-04-15T13:30:29.658Z,60.10
2023-04-15T13:35:32.082Z,59.90
2023-04-15T13:40:33.760Z,59.90
2023-04-15T13:45:35.432Z,59.90
2023-04-15T13:50:37.151Z,59.90
2023-04-15T13:55:41.749Z,59.80
2023-04-15T14:00:43.314Z,59.70
2023-04-15T14:05:45.320Z,59.60
2023-04-15T14:10:48.441Z,59.50
2023-04-15T14:15:50.076Z,59.50
2023-04-15T14:20:51.813Z,59.40
2023-04-15T14:25:53.974Z,59.30
2023-04-15T14:30:55.650Z,59.30
2023-04-15T14:35:57.411Z,59.20
2023-04-15T14:40:59.039Z,60.50
2023-04-15T14:46:00.872Z,60.80
2023-04-15T14:51:02.573Z,60.60
2023-04-15T14:56:04.387Z,60.50
2023-04-15T15:01:06.442Z,60.00
2023-04-15T15:06:08.906Z,59.90
2023-04-15T15:11:10.675Z,59.90
2023-04-15T15:16:14.430Z,59.90
2023-04-15T15:21:16.454Z,59.80
2023-04-15T15:26:19.260Z,59.60
2023-04-15T15:31:21.023Z,59.40
2023-04-15T15:36:22.872Z,59.60
2023-04-15T15:41:25.910Z,61.60
2023-04-15T15:46:28.384Z,61.00
2023-04-15T15:51:30.262Z,60.40
2023-04-15T15:56:31.924Z,60.30
2023-04-15T16:01:33.603Z,60.40
2023-04-15T16:06:35.451Z,60.50
2023-04-15T16:11:37.124Z,60.30
2023-04-15T16:16:38.962Z,60.40
2023-04-15T16:21:40.798Z,60.40
2023-04-15T16:26:42.451Z,60.30
2023-04-15T16:31:44.157Z,60.20
2023-04-15T16:36:45.825Z,60.80
2023-04-15T16:41:47.495Z,63.20
2023-04-15T16:46:49.274Z,62.70
2023-04-15T16:51:52.009Z,67.00
2023-04-15T16:56:54.835Z,62.90
2023-04-15T17:01:56.663Z,62.70
2023-04-15T17:06:58.562Z,62.60
2023-04-15T17:12:01.140Z,62.40
2023-04-15T17:17:02.876Z,62.30
2023-04-15T17:22:04.701Z,62.30
2023-04-15T17:27:06.765Z,62.20
2023-04-15T17:32:08.439Z,62.00
2023-04-15T17:37:10.101Z,62.50
2023-04-15T17:42:11.729Z,62.50
2023-04-15T17:47:13.397Z,62.30
2023-04-15T17:52:15.005Z,62.20
2023-04-15T17:57:16.735Z,62.20
2023-04-15T18:02:18.553Z,62.10
2023-04-15T18:07:20.293Z,62.00
2023-04-15T18:12:21.862Z,61.70
2023-04-15T18:17:24.008Z,61.30
2023-04-15T18:22:25.756Z,61.10
2023-04-15T18:27:27.485Z,62.30
2023-04-15T18:32:31.932Z,62.00
2023-04-15T18:37:33.714Z,61.40
2023-04-15T18:42:35.297Z,61.30
2023-04-15T18:47:36.935Z,61.50
2023-04-15T18:52:38.590Z,61.40
2023-04-15T18:57:42.551Z,61.50
2023-04-15T19:02:46.176Z,61.60
2023-04-15T19:07:47.929Z,61.80
2023-04-15T19:12:49.498Z,61.80
2023-04-15T19:17:51.266Z,61.70
2023-04-15T19:22:54.840Z,61.90
2023-04-15T19:27:57.896Z,62.10
2023-04-15T19:33:00.708Z,62.10
2023-04-15T19:38:04.716Z,62.10
2023-04-15T19:43:06.443Z,62.10
2023-04-15T19:48:08.042Z,62.00
2023-04-15T19:53:09.913Z,62.10
2023-04-15T19:58:11.719Z,62.10
2023-04-15T20:03:13.480Z,62.10
2023-04-15T20:08:15.387Z,62.10
2023-04-15T20:13:16.975Z,62.20
2023-04-15T20:18:18.574Z,62.10
2023-04-15T20:23:20.216Z,62.10
2023-04-15T20:28:23.670Z,62.10
2023-04-15T20:33:27.119Z,62.10
2023-04-15T20:38:28.922Z,63.10
2023-04-15T20:43:30.639Z,61.90
2023-04-15T20:48:32.205Z,61.80
2023-04-15T20:53:33.870Z,61.60
2023-04-15T20:58:35.510Z,61.50
2023-04-15T21:03:37.404Z,61.50
2023-04-15T21:08:39.103Z,61.30
2023-04-15T21:13:40.675Z,61.20
2023-04-15T21:18:42.439Z,61.20
2023-04-15T21:23:44.104Z,61.20
2023-04-15T21:28:45.882Z,61.10
2023-04-15T21:33:47.497Z,61.10
2023-04-15T21:38:49.132Z,61.00
2023-04-15T21:43:50.939Z,61.00
2023-04-15T21:48:53.863Z,61.00
2023-04-15T21:53:56.033Z,60.90
2023-04-15T21:58:57.805Z,60.90
2023-04-15T22:03:59.535Z,60.80
2023-04-15T22:09:01.514Z,60.90
2023-04-15T22:14:03.219Z,60.80
2023-04-15T22:19:04.862Z,60.80
2023-04-15T22:24:32.544Z,60.80
2023-04-15T22:29:29.026Z,60.80
2023-04-15T22:34:30.735Z,60.80
2023-04-15T22:39:32.308Z,60.80
2023-04-15T22:44:33.883Z,60.80
2023-04-15T22:49:36.357Z,60.80
2023-04-15T22:54:37.982Z,60.80
2023-04-15T22:59:39.556Z,60.80
2023-04-15T23:04:41.442Z,60.80
2023-04-15T23:09:43.211Z,60.80
2023-04-15T23:14:44.839Z,60.70
2023-04-15T23:19:46.530Z,60.80
2023-04-15T23:24:48.188Z,60.70
2023-04-15T23:29:49.923Z,60.80
2023-04-15T23:34:52.371Z,60.80
2023-04-15T23:39:55.715Z,60.80
2023-04-15T23:44:57.341Z,60.80
2023-04-15T23:49:58.907Z,60.70
2023-04-15T23:55:00.489Z,60.70
